createdAt,value
2019-02-02T00:03:50.979Z,0.30
2019-02-02T00:08:55.927Z,0.30
2019-02-02T00:14:00.884Z,0.40
2019-02-02T00:19:05.995Z,0.50
2019-02-02T00:24:10.970Z,0.50
2019-02-02T00:29:15.927Z,0.50
2019-02-02T00:34:20.883Z,0.60
2019-02-02T00:39:25.837Z,0.60
2019-02-02T00:44:30.776Z,0.60
2019-02-02T00:49:35.746Z,0.60
2019-02-02T00:54:40.694Z,0.60
2019-02-02T00:59:45.653Z,0.50
2019-02-02T01:04:50.613Z,0.50
2019-02-02T01:09:55.607Z,0.50
2019-02-02T01:15:00.603Z,0.50
2019-02-02T01:20:06.379Z,0.60
2019-02-02T01:25:11.714Z,0.60
2019-02-02T01:30:17.396Z,0.60
2019-02-02T01:35:22.345Z,0.70
2019-02-02T01:40:27.571Z,0.60
2019-02-02T01:45:32.618Z,0.60
2019-02-02T01:50:37.552Z,0.60
2019-02-02T01:55:42.539Z,0.60
2019-02-02T02:00:47.494Z,0.60
2019-02-02T02:05:52.442Z,0.60
2019-02-02T02:10:58.303Z,0.60
2019-02-02T02:16:03.373Z,0.60
2019-02-02T02:21:08.333Z,0.60
2019-02-02T02:26:13.298Z,0.50
2019-02-02T02:31:18.254Z,0.50
2019-02-02T02:36:23.199Z,0.50
2019-02-02T02:41:28.157Z,0.50
2019-02-02T02:46:33.126Z,0.50
2019-02-02T02:51:38.081Z,0.50
2019-02-02T02:56:43.049Z,0.40
2019-02-02T03:01:48.023Z,0.40
2019-02-02T03:06:52.981Z,0.40
2019-02-02T03:11:57.932Z,0.40
2019-02-02T03:17:02.872Z,0.40
2019-02-02T03:22:07.853Z,0.40
2019-02-02T03:27:12.957Z,0.30
2019-02-02T03:32:17.951Z,0.30
2019-02-02T03:37:23.255Z,0.30
2019-02-02T03:42:28.357Z,0.30
2019-02-02T03:47:33.426Z,0.30
2019-02-02T03:52:38.424Z,0.30
2019-02-02T03:57:43.394Z,0.30
2019-02-02T04:02:48.491Z,0.30
2019-02-02T04:07:53.617Z,0.40
2019-02-02T04:12:58.635Z,0.40
2019-02-02T04:18:03.603Z,0.50
2019-02-02T04:23:08.677Z,0.40
2019-02-02T04:28:13.650Z,0.30
2019-02-02T04:33:18.662Z,0.30
2019-02-02T04:38:23.603Z,0.20
2019-02-02T04:43:28.569Z,0.20
2019-02-02T04:48:33.536Z,0.20
2019-02-02T04:53:38.494Z,0.20
2019-02-02T04:58:43.459Z,0.20
2019-02-02T05:03:48.529Z,0.20
2019-02-02T05:08:53.493Z,0.20
2019-02-02T05:13:58.440Z,0.10
2019-02-02T05:19:03.388Z,0.10
2019-02-02T05:24:08.373Z,0.10
2019-02-02T05:29:13.328Z,0.20
2019-02-02T05:34:18.266Z,0.20
2019-02-02T05:39:23.214Z,0.20
2019-02-02T05:44:28.182Z,0.40
2019-02-02T05:49:33.138Z,0.40
2019-02-02T05:54:38.086Z,0.50
2019-02-02T05:59:52.445Z,0.50
2019-02-02T06:04:49.654Z,0.40
2019-02-02T06:09:54.598Z,0.40
2019-02-02T06:14:59.546Z,0.50
2019-02-02T06:20:05.248Z,0.40
2019-02-02T06:25:11.240Z,0.30
2019-02-02T06:30:17.834Z,0.30
2019-02-02T06:35:22.765Z,0.30
2019-02-02T06:40:27.714Z,0.30
2019-02-02T06:45:34.726Z,0.30
2019-02-02T06:50:39.695Z,0.30
2019-02-02T06:55:44.635Z,0.30
2019-02-02T07:00:49.644Z,0.30
2019-02-02T07:05:54.597Z,0.30
2019-02-02T07:10:59.578Z,0.40
2019-02-02T07:16:04.759Z,0.40
2019-02-02T07:21:09.724Z,0.40
2019-02-02T07:26:14.661Z,0.40
2019-02-02T07:31:19.625Z,0.30
2019-02-02T07:36:24.577Z,0.30
2019-02-02T07:41:29.602Z,0.40
2019-02-02T07:46:34.599Z,0.40
2019-02-02T07:51:39.661Z,0.50
2019-02-02T07:56:44.721Z,0.50
2019-02-02T08:01:49.719Z,0.50
2019-02-02T08:06:54.753Z,0.60
2019-02-02T08:11:59.760Z,0.60
2019-02-02T08:17:04.759Z,0.70
2019-02-02T08:22:10.051Z,0.70
2019-02-02T08:27:15.347Z,0.70
2019-02-02T08:32:20.376Z,0.80
2019-02-02T08:37:25.399Z,0.80
2019-02-02T08:42:30.583Z,0.80
2019-02-02T08:47:35.579Z,0.80
2019-02-02T08:52:40.599Z,0.90
2019-02-02T08:57:45.616Z,1.00
2019-02-02T09:02:50.682Z,1.00
2019-02-02T09:07:55.835Z,1.00
2019-02-02T09:13:00.971Z,1.10
2019-02-02T09:18:06.038Z,1.20
2019-02-02T09:23:11.101Z,1.30
2019-02-02T09:28:16.099Z,1.40
2019-02-02T09:33:21.275Z,1.50
2019-02-02T09:38:26.336Z,1.60
2019-02-02T09:43:31.340Z,1.70
2019-02-02T09:48:36.380Z,1.80
2019-02-02T09:53:41.383Z,1.90
2019-02-02T09:58:46.378Z,2.00
2019-02-02T10:03:51.811Z,2.10
2019-02-02T10:08:56.921Z,2.20
2019-02-02T10:14:01.962Z,2.10
2019-02-02T10:19:06.964Z,2.00
2019-02-02T10:24:12.027Z,2.00
2019-02-02T10:29:18.818Z,2.00
2019-02-02T10:34:23.849Z,2.00
2019-02-02T10:39:28.864Z,2.00
2019-02-02T10:44:33.922Z,2.00
2019-02-02T10:49:38.963Z,2.00
2019-02-02T10:54:43.998Z,2.00
2019-02-02T10:59:49.137Z,2.00
2019-02-02T11:04:54.203Z,2.00
2019-02-02T11:09:59.413Z,2.10
2019-02-02T11:15:05.796Z,2.20
2019-02-02T11:20:17.285Z,2.20
2019-02-02T11:25:20.999Z,2.30
2019-02-02T11:30:26.900Z,2.40
2019-02-02T11:35:31.994Z,2.50
2019-02-02T11:40:37.002Z,2.60
2019-02-02T11:45:42.006Z,2.80
2019-02-02T11:50:47.003Z,2.80
2019-02-02T11:55:52.014Z,2.90
2019-02-02T12:00:57.008Z,2.90
2019-02-02T12:06:02.329Z,2.90
2019-02-02T12:11:08.697Z,3.00
2019-02-02T12:16:13.707Z,3.10
2019-02-02T12:21:18.723Z,3.30
2019-02-02T12:26:23.783Z,3.30
2019-02-02T12:31:28.785Z,3.20
2019-02-02T12:36:33.881Z,3.10
2019-02-02T12:41:38.935Z,2.90
2019-02-02T12:46:43.938Z,2.70
2019-02-02T12:51:48.943Z,2.50
2019-02-02T12:56:53.948Z,2.40
2019-02-02T13:01:59.006Z,2.30
2019-02-02T13:07:04.128Z,2.30
2019-02-02T13:12:09.126Z,2.30
2019-02-02T13:17:14.253Z,2.30
2019-02-02T13:22:19.314Z,2.20
2019-02-02T13:27:24.360Z,2.20
2019-02-02T13:32:29.450Z,2.10
2019-02-02T13:37:34.851Z,2.10
2019-02-02T13:42:39.991Z,2.00
2019-02-02T13:47:45.028Z,2.00
2019-02-02T13:52:50.062Z,2.00
2019-02-02T13:57:55.071Z,2.00
2019-02-02T14:03:03.309Z,2.00
2019-02-02T14:08:07.233Z,2.00
2019-02-02T14:13:12.284Z,2.00
2019-02-02T14:18:17.292Z,2.00
2019-02-02T14:23:22.307Z,2.00
2019-02-02T14:28:28.760Z,2.00
2019-02-02T14:33:33.987Z,2.10
2019-02-02T14:38:39.038Z,2.00
2019-02-02T14:43:44.043Z,2.00
2019-02-02T14:48:49.104Z,2.00
2019-02-02T14:53:54.107Z,1.90
2019-02-02T14:58:59.124Z,1.90
2019-02-02T15:04:04.179Z,1.80
2019-02-02T15:09:09.615Z,1.80
2019-02-02T15:14:14.639Z,1.80
2019-02-02T15:19:19.923Z,1.80
2019-02-02T15:24:25.072Z,1.80
2019-02-02T15:29:30.054Z,1.80
2019-02-02T15:34:35.059Z,1.80
2019-02-02T15:39:40.080Z,1.70
2019-02-02T15:44:45.123Z,1.80
2019-02-02T15:49:50.168Z,1.80
2019-02-02T15:54:55.187Z,1.70
2019-02-02T16:00:00.214Z,1.70
2019-02-02T16:05:08.106Z,1.70
2019-02-02T16:10:18.742Z,1.70
2019-02-02T16:15:23.751Z,1.60
2019-02-02T16:20:34.483Z,1.60
2019-02-02T16:25:39.530Z,1.60
2019-02-02T16:30:44.500Z,1.60
2019-02-02T16:35:49.520Z,1.60
2019-02-02T16:40:54.511Z,1.50
2019-02-02T16:45:59.531Z,1.50
2019-02-02T16:51:04.551Z,1.50
2019-02-02T16:56:09.579Z,1.50
2019-02-02T17:01:14.631Z,1.40
2019-02-02T17:06:19.640Z,1.40
2019-02-02T17:11:24.688Z,1.40
2019-02-02T17:16:29.776Z,1.30
2019-02-02T17:21:34.771Z,1.30
2019-02-02T17:26:41.541Z,1.20
2019-02-02T17:31:47.223Z,1.20
2019-02-02T17:36:52.524Z,1.10
2019-02-02T17:41:57.523Z,1.10
2019-02-02T17:47:02.538Z,1.10
2019-02-02T17:52:07.555Z,1.10
2019-02-02T17:57:12.587Z,1.00
2019-02-02T18:02:17.639Z,1.00
2019-02-02T18:07:22.747Z,1.00
2019-02-02T18:12:27.747Z,0.90
2019-02-02T18:17:32.752Z,0.80
2019-02-02T18:22:37.883Z,0.70
2019-02-02T18:27:43.099Z,0.60
2019-02-02T18:32:50.401Z,0.50
2019-02-02T18:37:55.443Z,0.40
2019-02-02T18:43:00.498Z,0.40
2019-02-02T18:48:06.085Z,0.60
2019-02-02T18:53:11.477Z,0.70
2019-02-02T18:58:16.556Z,0.80
2019-02-02T19:03:21.641Z,1.00
2019-02-02T19:08:26.675Z,1.00
2019-02-02T19:13:31.788Z,1.00
2019-02-02T19:18:36.810Z,1.00
2019-02-02T19:23:41.828Z,1.00
2019-02-02T19:28:46.832Z,1.00
2019-02-02T19:33:51.903Z,1.00
2019-02-02T19:38:56.970Z,1.00
2019-02-02T19:44:02.087Z,1.00
2019-02-02T19:49:07.206Z,1.00
2019-02-02T19:54:12.196Z,1.00
2019-02-02T19:59:17.208Z,1.00
2019-02-02T20:04:22.232Z,1.00
2019-02-02T20:09:27.236Z,1.10
2019-02-02T20:14:32.272Z,1.10
2019-02-02T20:19:37.309Z,1.10
2019-02-02T20:24:42.340Z,1.10
2019-02-02T20:29:47.431Z,1.10
2019-02-02T20:34:52.612Z,1.20
2019-02-02T20:39:57.690Z,1.20
2019-02-02T20:45:02.823Z,1.20
2019-02-02T20:50:11.580Z,1.20
2019-02-02T20:55:22.055Z,1.20
2019-02-02T21:00:28.224Z,1.20
2019-02-02T21:05:33.624Z,1.20
2019-02-02T21:10:39.043Z,1.20
2019-02-02T21:15:44.070Z,1.20
2019-02-02T21:20:49.115Z,1.30
2019-02-02T21:25:54.120Z,1.30
2019-02-02T21:30:59.187Z,1.30
2019-02-02T21:36:04.507Z,1.30
2019-02-02T21:41:10.028Z,1.30
2019-02-02T21:46:15.118Z,1.40
2019-02-02T21:51:20.135Z,1.40
2019-02-02T21:56:25.181Z,1.30
2019-02-02T22:01:30.212Z,1.30
2019-02-02T22:06:35.277Z,1.30
2019-02-02T22:11:40.347Z,1.40
2019-02-02T22:16:45.378Z,1.40
2019-02-02T22:21:50.448Z,1.40
2019-02-02T22:26:55.828Z,1.40
2019-02-02T22:32:00.963Z,1.40
2019-02-02T22:37:06.298Z,1.40
2019-02-02T22:42:11.316Z,1.40
2019-02-02T22:47:16.376Z,1.40
2019-02-02T22:52:21.395Z,1.40
2019-02-02T22:57:26.407Z,1.30
2019-02-02T23:02:31.429Z,1.10
2019-02-02T23:08:08.686Z,1.10
2019-02-02T23:13:43.476Z,1.10
2019-02-02T23:18:48.497Z,1.20
2019-02-02T23:23:53.561Z,1.30
2019-02-02T23:28:58.571Z,1.20
2019-02-02T23:34:03.802Z,1.20
2019-02-02T23:39:09.767Z,1.30
2019-02-02T23:44:15.227Z,1.30
2019-02-02T23:49:20.238Z,1.20
2019-02-02T23:54:25.262Z,1.00
2019-02-02T23:59:30.292Z,0.80
